West Palm Beach, FL (33403)

1:08 PM EDT on April 27, 2017 (GMT -0400)
Cap'n Jolly's Sky View | | Change Station

Elev 17 ft 26.82 °N, 80.07 °W | Updated 3 minutes ago

Partly Cloudy
Partly Cloudy
85.6 °F
Feels Like 94 °F
N
3.4
Wind Variable Wind from SE

Today
High -- | Low -- °F
--% Chance of Precip.
Yesterday
High -- | Low -- °F
Precip. -- in
Pressure 29.99 in
Visibility 10.0 miles
Clouds Mostly Cloudy 2100 ft
Mostly Cloudy 3300 ft
Mostly Cloudy 7500 ft
Heat Index 94 °F
Dew Point 75 °F
Humidity 70%
Rainfall 0.00 in
Snow Depth Not available.
6:45 AM 7:50 PM
New Moon, 2% visible
METAR KPBI 271653Z 13015KT 10SM BKN021 BKN033 BKN075 30/22 A2999 RMK AO2 SLP155 T03000222
Pressure 29.99 in
Visibility 10.0 miles
Clouds Mostly Cloudy 2100 ft
Mostly Cloudy 3300 ft
Mostly Cloudy 7500 ft
Heat Index 94 °F
Dew Point 75 °F
Humidity 70%
Rainfall 0.00 in
Snow Depth Not available.
6:45 AM 7:50 PM
New Moon, 2% visible
METAR KPBI 271653Z 13015KT 10SM BKN021 BKN033 BKN075 30/22 A2999 RMK AO2 SLP155 T03000222

Get Severe Weather Alerts

Thanks for signing up!

Be on the lookout for a verification email in your inbox.

You'll start receiving the daily forecast at 8 AM.

×

10-Day Weather Forecast

Almanac

Astronomy

Apr. 27, 2017 Rise Set
Actual Time
Civil Twilight
Nautical Twilight
Astronomical Twilight
Moon
Length of Visible Light
Length of Day
Tomorrow will be .
, % of the Moon is Illuminated

Today's Extremes

State Highs State Lows

Community

WunderPhotos

WunderBlog® & News

Nearby

Air Quality

  Air Quality AQ Index Pollutant
Not available.

Snow Depth

Station Depth Elevation

Earthquake Activity

City Distance Mag. Time & Date
Minimum magnitude displayed is 2.5.

Coastal Water Temperatures

Place Temperature

Stations

Nearby Weather Stations

Station Location Temp. Windchill Dew Point Humidity Wind Precip. Elev Updated Type
                   

Watches & Warnings

There are currently no watches in effect.